Middlebury, Connecticut
Current Conditions -  °F | °C
As of 12:15 AM on Thursday 23 Oct 2014 (Local Time) from KOXC Reporting Station
Overcast Overcast  
Wind Chill: 42°   Ceiling: 4000
Heat Index: 48°   Visibility: 10mi
Dew Point: 41°   Wind: 16mph
Humidity: 76%   Direction: 30°NNE
Pressure: 29.79"   Gusts: 26mph
Location:  41.53°N, 73.13°W
Report Text: KOXC 230415Z 03014G23KT 10SM SCT019 BKN040 OVC085 09/05 A2979 RMK AO1 P0005
Loading
Personal Weather Stations






























Interactive Weather Map
Tropical Storm Tracking
New forecast layout! Learn more

10-Day Weather Forecast

Advertisements
Track Severe Weather on mobile